Terminal Aerodrome Forecast
Issued by NWS Rapid City, SD

Home | Current Version | Previous Version | Graphics & Text | Print | Product List | Glossary On
Versions: 1 2 3 4 5 6 7 8 9 10 11 12 13 14 15 16 17
866
FTUS43 KUNR 272320
TAFRAP
TAF
KRAP 272320Z 2800/2824 06010KT P6SM OVC040
     FM280500 04008KT P6SM VCSH SCT015 OVC030
     FM280900 03010KT 4SM -SHRASN SCT008 OVC015
     FM281400 03011KT P6SM OVC020
     FM281800 03015KT P6SM OVC035=

USA.gov is the U.S. government's official web portal to all federal, state and local government web resources and services.